Time;durP1;ratioP1;P1;durP2;ratioP2;P2;SDS_P1;SDS_P2;PMS_P1;PMS_P2;Temp;Humidity;BMP_temperature;BMP_pressure;BME280_temperature;BME280_humidity;BME280_pressure;Samples;Min_cycle;Max_cycle;Signal;HPM_P1;HPM_P2
2023/01/30 00:01:37;;;;;;;43.47;36.97;;;;;;;3.71;100.00;101715.81;5094699;28;20059;-80
2023/01/30 00:04:02;;;;;;;45.70;37.57;;;;;;;3.74;100.00;101689.69;5079977;28;20042;-85
2023/01/30 00:06:28;;;;;;;44.63;38.43;;;;;;;3.87;100.00;101699.09;5084489;28;20035;-85
2023/01/30 00:08:53;;;;;;;43.67;37.70;;;;;;;3.86;100.00;101699.25;5105521;28;20103;-84
2023/01/30 00:11:20;;;;;;;43.03;37.73;;;;;;;3.88;100.00;101683.88;5105944;28;20096;-84
2023/01/30 00:13:47;;;;;;;47.10;40.00;;;;;;;3.94;100.00;101690.47;5103347;28;20495;-84
2023/01/30 00:16:13;;;;;;;44.77;38.93;;;;;;;4.01;100.00;101668.28;5103672;28;20096;-84
2023/01/30 00:18:39;;;;;;;48.90;41.80;;;;;;;4.06;100.00;101675.88;5104069;28;20514;-80
2023/01/30 00:21:07;;;;;;;48.33;40.67;;;;;;;4.14;100.00;101681.34;5090345;28;20373;-79
2023/01/30 00:23:34;;;;;;;46.33;41.03;;;;;;;4.22;100.00;101684.13;5094007;28;20035;-80
2023/01/30 00:25:59;;;;;;;45.20;39.57;;;;;;;4.25;100.00;101687.53;5095066;28;20050;-80
2023/01/30 00:28:25;;;;;;;44.93;39.43;;;;;;;4.22;100.00;101670.72;5094118;28;20483;-79
2023/01/30 00:30:52;;;;;;;45.57;38.70;;;;;;;4.27;100.00;101674.78;5093181;28;20024;-80
2023/01/30 00:33:18;;;;;;;45.50;39.33;;;;;;;4.26;100.00;101675.78;5088587;28;20027;-80
2023/01/30 00:35:49;;;;;;;42.37;37.17;;;;;;;4.32;100.00;101669.81;5095856;28;20108;-80
2023/01/30 00:38:15;;;;;;;41.83;37.30;;;;;;;4.33;100.00;101666.16;5094581;28;20026;-85
2023/01/30 00:40:40;;;;;;;43.27;37.00;;;;;;;4.33;100.00;101660.78;5106768;28;20040;-85
2023/01/30 00:48:37;;;;;;;43.07;37.90;;;;;;;4.27;100.00;101658.69;5108429;28;20104;-85
2023/01/30 00:51:02;;;;;;;42.00;37.50;;;;;;;4.27;100.00;101667.59;5107405;28;20110;-85
2023/01/30 00:53:28;;;;;;;44.40;39.03;;;;;;;4.28;100.00;101671.13;5100751;28;20447;-80
2023/01/30 00:55:54;;;;;;;43.63;38.90;;;;;;;4.27;100.00;101664.06;5093481;28;20031;-80
2023/01/30 00:58:20;;;;;;;44.17;38.23;;;;;;;4.37;100.00;101662.16;5092634;28;20034;-79
2023/01/30 01:00:46;;;;;;;44.53;39.17;;;;;;;4.36;100.00;101644.38;5095594;28;20028;-80
2023/01/30 01:03:12;;;;;;;43.70;38.50;;;;;;;4.35;100.00;101648.03;5094154;28;20096;-79
2023/01/30 01:05:37;;;;;;;44.67;39.43;;;;;;;4.39;100.00;101652.09;5091895;28;20070;-80
2023/01/30 01:08:03;;;;;;;42.27;37.77;;;;;;;4.34;100.00;101657.94;5062557;28;20066;-79
2023/01/30 01:10:28;;;;;;;46.80;40.83;;;;;;;4.37;100.00;101648.75;5094125;28;20028;-80
2023/01/30 01:12:54;;;;;;;44.20;39.53;;;;;;;4.38;100.00;101640.53;5088930;28;20394;-80
2023/01/30 01:15:21;;;;;;;43.53;38.83;;;;;;;4.40;100.00;101629.66;5093202;28;20054;-79
2023/01/30 01:17:47;;;;;;;45.03;39.67;;;;;;;4.52;100.00;101628.44;5094531;28;20031;-80
2023/01/30 01:20:13;;;;;;;44.17;39.47;;;;;;;4.54;100.00;101634.50;5093507;28;20032;-79
2023/01/30 01:22:39;;;;;;;43.90;39.20;;;;;;;4.53;100.00;101626.63;5094921;28;20043;-80
2023/01/30 01:25:05;;;;;;;43.57;38.63;;;;;;;4.62;100.00;101620.31;5087452;28;20505;-80
2023/01/30 01:27:30;;;;;;;43.50;37.93;;;;;;;4.62;100.00;101614.09;5093668;28;20040;-80
2023/01/30 01:29:55;;;;;;;45.83;39.40;;;;;;;4.67;100.00;101618.00;5096163;28;20034;-79
2023/01/30 01:32:22;;;;;;;42.60;38.20;;;;;;;4.67;100.00;101609.97;5088772;28;20543;-80
2023/01/30 01:34:47;;;;;;;42.90;38.30;;;;;;;4.76;100.00;101624.31;5095055;28;20457;-79
2023/01/30 01:37:12;;;;;;;41.73;37.23;;;;;;;4.75;100.00;101619.94;5091350;28;20122;-80
2023/01/30 01:42:25;;;;;;;40.70;36.40;;;;;;;4.79;100.00;101615.09;5096742;28;20092;-80
2023/01/30 01:45:03;;;;;;;39.20;35.00;;;;;;;4.84;100.00;101613.63;5098104;28;20035;-80
2023/01/30 01:47:29;;;;;;;38.20;34.10;;;;;;;4.88;100.00;101592.66;5098183;28;20046;-80
2023/01/30 01:49:55;;;;;;;39.33;35.03;;;;;;;4.88;100.00;101577.41;5096000;28;20039;-80
2023/01/30 01:52:20;;;;;;;39.03;34.93;;;;;;;4.88;100.00;101587.31;5095511;28;20093;-80
2023/01/30 01:54:52;;;;;;;38.47;34.50;;;;;;;4.96;100.00;101584.69;5097399;28;20035;-80
2023/01/30 01:57:24;;;;;;;38.87;34.77;;;;;;;4.94;100.00;101586.69;5104291;28;20067;-84
2023/01/30 01:59:56;;;;;;;38.63;34.53;;;;;;;4.95;100.00;101580.31;5107030;28;20032;-85
2023/01/30 02:02:21;;;;;;;39.13;35.03;;;;;;;4.97;100.00;101567.56;5096290;28;20123;-85
2023/01/30 02:05:05;;;;;;;39.10;34.97;;;;;;;4.95;100.00;101572.28;5101677;28;20640;-80
2023/01/30 02:07:56;;;;;;;39.63;35.43;;;;;;;4.93;100.00;101579.63;5097410;28;21017;-80
2023/01/30 02:10:27;;;;;;;39.60;35.47;;;;;;;5.00;100.00;101574.47;5108678;28;20016;-85
2023/01/30 02:12:52;;;;;;;39.93;35.50;;;;;;;4.95;100.00;101566.03;5099321;28;20123;-85
2023/01/30 02:15:18;;;;;;;39.17;35.00;;;;;;;5.01;100.00;101568.94;5105601;28;20118;-85
2023/01/30 02:17:44;;;;;;;40.87;36.53;;;;;;;5.00;100.00;101547.63;5106929;28;20031;-84
2023/01/30 02:20:22;;;;;;;42.37;36.90;;;;;;;4.98;100.00;101552.31;5110003;28;20527;-85
2023/01/30 02:23:24;;;;;;;39.80;35.40;;;;;;;5.01;100.00;101560.06;5108604;28;20031;-84
2023/01/30 02:25:59;;;;;;;39.17;35.10;;;;;;;4.97;100.00;101550.63;5110413;27;20027;-85
2023/01/30 02:28:45;;;;;;;39.30;35.13;;;;;;;5.01;100.00;101547.44;5109098;28;20107;-84
2023/01/30 02:31:39;;;;;;;39.17;34.87;;;;;;;5.01;100.00;101522.44;5105759;28;20100;-84
2023/01/30 02:34:29;;;;;;;38.53;34.20;;;;;;;5.02;100.00;101534.88;5105114;28;20058;-85
2023/01/30 02:37:16;;;;;;;39.00;34.90;;;;;;;5.03;100.00;101532.03;5111116;28;20077;-84
2023/01/30 02:40:07;;;;;;;39.33;35.13;;;;;;;5.03;100.00;101537.41;5104004;28;20473;-84
2023/01/30 02:42:33;;;;;;;39.80;35.00;;;;;;;5.07;100.00;101545.97;5109459;28;20023;-85
2023/01/30 02:45:15;;;;;;;38.10;34.10;;;;;;;5.02;100.00;101542.94;5105303;28;20035;-85
2023/01/30 02:47:48;;;;;;;39.67;35.53;;;;;;;4.98;100.00;101526.28;5109340;28;20550;-84
2023/01/30 02:50:23;;;;;;;36.47;32.50;;;;;;;5.01;100.00;101512.53;5099501;28;20020;-85
2023/01/30 02:52:48;;;;;;;39.43;35.30;;;;;;;4.99;100.00;101519.94;5098791;28;20024;-80
2023/01/30 02:55:24;;;;;;;36.87;32.97;;;;;;;5.03;100.00;101512.38;5091670;28;20104;-79
2023/01/30 02:57:49;;;;;;;37.20;33.30;;;;;;;5.05;100.00;101513.91;5091667;28;20104;-80
2023/01/30 03:00:31;;;;;;;38.67;34.57;;;;;;;5.05;100.00;101513.06;5094600;28;21735;-79
2023/01/30 03:03:20;;;;;;;38.73;34.50;;;;;;;5.14;100.00;101517.50;5095229;28;20047;-80
2023/01/30 03:06:13;;;;;;;38.03;34.03;;;;;;;5.12;100.00;101498.00;5067260;28;20047;-79
2023/01/30 03:08:52;;;;;;;38.33;34.20;;;;;;;5.07;100.00;101494.94;5092579;28;20031;-85
2023/01/30 03:11:23;;;;;;;39.40;34.80;;;;;;;5.01;100.00;101499.09;5105441;28;20116;-85
2023/01/30 03:14:02;;;;;;;39.67;35.47;;;;;;;5.05;100.00;101495.09;5107586;28;20491;-85
2023/01/30 03:16:33;;;;;;;42.30;37.57;;;;;;;4.98;100.00;101501.28;5107727;28;20033;-85
2023/01/30 03:19:03;;;;;;;42.00;37.50;;;;;;;4.98;100.00;101494.06;5109830;28;20047;-85
2023/01/30 03:21:28;;;;;;;43.50;38.90;;;;;;;4.97;100.00;101491.53;5106219;28;20122;-85
2023/01/30 03:23:54;;;;;;;42.73;38.27;;;;;;;4.96;100.00;101487.16;5107344;28;20597;-85
2023/01/30 03:26:23;;;;;;;42.27;37.80;;;;;;;4.98;100.00;101485.19;5100840;28;20039;-85
2023/01/30 03:28:50;;;;;;;41.83;37.23;;;;;;;4.94;100.00;101473.03;5103649;28;20044;-85
2023/01/30 03:31:16;;;;;;;45.00;39.37;;;;;;;4.94;100.00;101481.09;5109969;28;20502;-85
2023/01/30 03:33:41;;;;;;;43.37;38.83;;;;;;;4.95;100.00;101475.59;5108973;28;20036;-86
2023/01/30 03:36:08;;;;;;;42.90;38.23;;;;;;;4.95;100.00;101485.47;5104506;28;20035;-86
2023/01/30 03:38:34;;;;;;;42.40;37.80;;;;;;;4.99;100.00;101481.47;5102959;28;20032;-86
2023/01/30 03:41:01;;;;;;;44.53;38.83;;;;;;;4.97;100.00;101481.63;5108113;28;20028;-86
2023/01/30 03:43:26;;;;;;;43.30;38.60;;;;;;;4.97;100.00;101476.25;5109873;28;20032;-85
2023/01/30 03:45:52;;;;;;;42.07;37.17;;;;;;;5.01;100.00;101480.31;5107026;28;20135;-86
2023/01/30 03:48:17;;;;;;;40.37;35.97;;;;;;;5.00;100.00;101464.34;5108195;28;20066;-86
2023/01/30 03:50:42;;;;;;;40.50;35.83;;;;;;;5.02;100.00;101465.88;5106893;28;20036;-86
2023/01/30 03:53:08;;;;;;;40.33;35.93;;;;;;;5.05;100.00;101470.09;5104348;28;20031;-86
2023/01/30 03:55:33;;;;;;;38.47;34.30;;;;;;;5.09;100.00;101466.09;5107597;28;20031;-85
2023/01/30 03:57:59;;;;;;;37.33;32.17;;;;;;;5.10;100.00;101473.16;5106863;28;20424;-86
2023/01/30 04:00:24;;;;;;;37.30;33.27;;;;;;;5.10;100.00;101473.16;5099196;28;20064;-85
2023/01/30 04:02:50;;;;;;;36.63;31.57;;;;;;;5.12;100.00;101473.00;5091150;28;20063;-80
2023/01/30 04:05:16;;;;;;;36.33;28.37;;;;;;;5.15;100.00;101481.53;5094384;28;20151;-79
2023/01/30 04:07:42;;;;;;;29.77;25.93;;;;;;;5.17;100.00;101468.81;5079716;28;20586;-80
2023/01/30 04:10:07;;;;;;;31.27;25.80;;;;;;;5.21;100.00;101472.84;5089830;28;20027;-80
2023/01/30 04:12:33;;;;;;;29.33;23.10;;;;;;;5.29;100.00;101473.88;5095209;28;20023;-79
2023/01/30 04:14:58;;;;;;;25.30;21.57;;;;;;;5.29;100.00;101471.19;5094823;28;20126;-80
2023/01/30 04:17:23;;;;;;;27.07;21.33;;;;;;;5.36;100.00;101472.25;5095210;28;20499;-79
2023/01/30 04:19:49;;;;;;;26.77;21.90;;;;;;;5.34;100.00;101464.34;5095086;28;20028;-79
2023/01/30 04:22:14;;;;;;;25.73;20.80;;;;;;;5.41;100.00;101481.50;5094785;28;20360;-79
2023/01/30 04:24:40;;;;;;;25.93;19.67;;;;;;;5.42;100.00;101482.34;5094470;28;20383;-79
2023/01/30 04:27:05;;;;;;;23.80;18.37;;;;;;;5.51;100.00;101467.94;5078888;28;20027;-80
2023/01/30 04:29:30;;;;;;;24.57;17.90;;;;;;;5.51;100.00;101465.25;5094670;28;20031;-79
2023/01/30 04:31:56;;;;;;;24.30;18.70;;;;;;;5.53;100.00;101465.91;5093456;28;20055;-80
2023/01/30 04:34:21;;;;;;;25.27;16.77;;;;;;;5.55;100.00;101466.59;5092773;28;20060;-79
2023/01/30 04:36:46;;;;;;;23.27;17.73;;;;;;;5.62;100.00;101449.84;5094969;28;20149;-79
2023/01/30 04:39:12;;;;;;;24.20;17.23;;;;;;;5.70;100.00;101457.91;5076077;28;20039;-79
2023/01/30 04:41:37;;;;;;;24.27;17.10;;;;;;;5.72;100.00;101458.56;5093321;28;20399;-80
2023/01/30 04:44:03;;;;;;;23.27;16.00;;;;;;;5.78;100.00;101470.50;5094573;28;20107;-79
2023/01/30 04:46:28;;;;;;;21.63;15.80;;;;;;;5.78;100.00;101466.00;5093071;28;20510;-79
2023/01/30 04:48:53;;;;;;;21.77;16.03;;;;;;;5.82;100.00;101480.78;5099360;28;20030;-85
2023/01/30 04:51:19;;;;;;;22.80;15.43;;;;;;;5.84;100.00;101480.63;5106161;28;20045;-85
2023/01/30 04:53:44;;;;;;;23.00;15.30;;;;;;;5.87;100.00;101478.44;5105867;28;20520;-84
2023/01/30 04:56:09;;;;;;;23.83;15.80;;;;;;;5.85;100.00;101477.78;5108891;28;20418;-85
2023/01/30 04:58:35;;;;;;;22.43;14.97;;;;;;;5.89;100.00;101471.06;5100054;28;20054;-85
2023/01/30 05:01:13;;;;;;;22.87;14.87;;;;;;;5.97;100.00;101464.00;5096277;28;20055;-79
2023/01/30 05:03:38;;;;;;;22.70;14.80;;;;;;;5.91;100.00;101460.13;5086396;28;20040;-79
2023/01/30 05:06:03;;;;;;;22.30;14.33;;;;;;;5.91;100.00;101474.41;5093329;28;20054;-79
2023/01/30 05:08:29;;;;;;;20.10;13.37;;;;;;;5.99;100.00;101484.38;5092466;28;20039;-79
2023/01/30 05:10:56;;;;;;;20.00;12.47;;;;;;;6.04;100.00;101481.19;5098138;28;20118;-79
2023/01/30 05:13:21;;;;;;;20.70;12.60;;;;;;;6.06;100.00;101495.31;5098306;28;20024;-79
2023/01/30 05:15:47;;;;;;;23.70;13.47;;;;;;;6.07;100.00;101488.94;5096484;28;21784;-79
2023/01/30 05:18:12;;;;;;;20.07;12.20;;;;;;;6.16;100.00;101479.00;5097289;28;20031;-79
2023/01/30 05:20:37;;;;;;;21.73;11.37;;;;;;;6.16;100.00;101484.38;5097803;28;20114;-80
2023/01/30 05:23:03;;;;;;;21.27;11.03;;;;;;;6.16;100.00;101462.88;5079087;28;20704;-79
2023/01/30 05:25:28;;;;;;;20.47;10.70;;;;;;;6.19;100.00;101471.44;5097574;28;20047;-79
2023/01/30 05:27:53;;;;;;;19.77;10.73;;;;;;;6.17;100.00;101481.53;5099451;28;20031;-80
2023/01/30 05:30:19;;;;;;;17.70;10.13;;;;;;;6.13;100.00;101482.88;5095880;28;20015;-79
2023/01/30 05:32:44;;;;;;;22.30;10.30;;;;;;;6.16;100.00;101479.88;5098976;28;20036;-80
2023/01/30 05:35:09;;;;;;;20.57;9.90;;;;;;;6.10;100.00;101471.63;5096016;28;20088;-79
2023/01/30 05:37:36;;;;;;;19.73;9.17;;;;;;;6.11;100.00;101462.56;5098004;27;20027;-80
2023/01/30 05:40:02;;;;;;;19.13;7.83;;;;;;;6.10;100.00;101472.44;5097287;28;20026;-79
2023/01/30 05:42:27;;;;;;;18.13;7.83;;;;;;;6.14;100.00;101463.03;5096748;28;21779;-79
2023/01/30 05:44:53;;;;;;;19.53;7.07;;;;;;;6.16;100.00;101461.03;5097523;28;20111;-80
2023/01/30 05:47:18;;;;;;;18.07;7.60;;;;;;;6.15;100.00;101459.34;5097829;28;20067;-80
2023/01/30 05:49:43;;;;;;;17.30;6.70;;;;;;;6.15;100.00;101470.09;5097535;28;20027;-79
2023/01/30 05:52:09;;;;;;;18.47;7.03;;;;;;;6.11;100.00;101454.47;5077384;28;20036;-79
2023/01/30 05:54:34;;;;;;;20.50;7.40;;;;;;;6.16;100.00;101468.25;5095649;28;20068;-79
2023/01/30 05:56:59;;;;;;;18.17;7.03;;;;;;;6.17;100.00;101465.38;5096150;28;20119;-80
2023/01/30 05:59:25;;;;;;;18.53;6.50;;;;;;;6.29;100.00;101475.84;5091056;28;20028;-80
2023/01/30 06:01:50;;;;;;;19.57;6.50;;;;;;;6.23;100.00;101488.94;5081932;28;20075;-79
2023/01/30 06:04:15;;;;;;;18.67;6.83;;;;;;;6.18;100.00;101496.66;5098025;28;20061;-79
2023/01/30 06:06:41;;;;;;;20.23;6.77;;;;;;;6.13;100.00;101488.25;5095150;28;20029;-80
2023/01/30 06:09:06;;;;;;;17.03;6.23;;;;;;;6.19;100.00;101501.06;5095861;28;20080;-79
2023/01/30 06:11:31;;;;;;;19.03;7.03;;;;;;;6.21;100.00;101504.41;5095026;28;20027;-80
2023/01/30 06:13:57;;;;;;;16.97;6.13;;;;;;;6.24;100.00;101509.47;5097131;28;20027;-80
2023/01/30 06:16:22;;;;;;;16.50;6.83;;;;;;;6.19;100.00;101509.13;5095060;28;20092;-80
2023/01/30 06:18:47;;;;;;;18.17;7.00;;;;;;;6.20;100.00;101497.38;5081817;28;20043;-80
2023/01/30 06:21:14;;;;;;;18.03;6.27;;;;;;;6.20;100.00;101513.50;5096360;28;20027;-79
2023/01/30 06:23:40;;;;;;;17.77;6.40;;;;;;;6.19;100.00;101517.19;5092083;28;20378;-79
2023/01/30 06:26:05;;;;;;;20.47;6.30;;;;;;;6.20;100.00;101518.88;5089083;28;20527;-79
2023/01/30 06:28:31;;;;;;;17.53;5.90;;;;;;;6.15;100.00;101507.78;5097257;28;20122;-79
2023/01/30 06:30:56;;;;;;;18.20;6.23;;;;;;;6.07;100.00;101522.03;5097719;28;20751;-80
2023/01/30 06:33:21;;;;;;;20.30;6.53;;;;;;;6.08;100.00;101533.66;5097276;28;20039;-79
2023/01/30 06:35:49;;;;;;;17.00;6.60;;;;;;;6.08;100.00;101536.38;5103904;28;20038;-85
2023/01/30 06:38:14;;;;;;;17.77;5.80;;;;;;;6.12;100.00;101532.34;5105040;28;20095;-85
2023/01/30 06:40:42;;;;;;;16.17;5.67;;;;;;;6.09;100.00;101535.34;5105143;28;20595;-86
2023/01/30 06:43:08;;;;;;;22.13;6.47;;;;;;;6.02;100.00;101515.47;5109446;28;20027;-79
2023/01/30 06:45:33;;;;;;;18.37;5.90;;;;;;;6.01;100.00;101524.56;5080344;27;20039;-80
2023/01/30 06:47:59;;;;;;;16.43;4.90;;;;;;;5.99;100.00;101522.03;5096266;28;20032;-80
2023/01/30 06:50:27;;;;;;;17.90;4.60;;;;;;;5.94;100.00;101526.19;5096913;28;20542;-80
2023/01/30 06:52:53;;;;;;;16.03;4.50;;;;;;;5.88;100.00;101531.22;5088880;28;20031;-80
2023/01/30 06:55:21;;;;;;;14.03;4.63;;;;;;;5.81;100.00;101524.81;5095769;28;20039;-79
2023/01/30 06:57:47;;;;;;;18.13;4.53;;;;;;;5.83;100.00;101527.34;5094518;28;20600;-86
2023/01/30 07:00:15;;;;;;;16.40;4.30;;;;;;;5.81;100.00;101518.63;5100853;28;20050;-86
2023/01/30 07:02:41;;;;;;;14.03;3.50;;;;;;;5.89;100.00;101515.94;5102821;28;20044;-85
2023/01/30 07:05:08;;;;;;;15.40;3.90;;;;;;;5.83;100.00;101517.41;5108017;28;20087;-86
2023/01/30 07:07:34;;;;;;;16.30;4.33;;;;;;;5.72;100.00;101517.72;5106553;28;20019;-86
2023/01/30 07:10:00;;;;;;;14.23;3.77;;;;;;;5.79;100.00;101534.06;5108688;28;20019;-85
2023/01/30 07:12:26;;;;;;;14.57;3.97;;;;;;;5.70;100.00;101522.44;5085289;28;20028;-85
2023/01/30 07:14:52;;;;;;;15.20;3.70;;;;;;;5.66;100.00;101535.38;5106285;28;20094;-85
2023/01/30 07:17:21;;;;;;;12.97;3.50;;;;;;;5.72;100.00;101545.44;5109331;28;20136;-85
2023/01/30 07:19:47;;;;;;;16.53;4.10;;;;;;;5.68;100.00;101540.56;5105175;28;20077;-86
2023/01/30 07:22:13;;;;;;;13.90;3.70;;;;;;;5.50;100.00;101544.19;5102659;28;20516;-85
2023/01/30 07:24:39;;;;;;;12.47;3.70;;;;;;;5.45;100.00;101551.06;5100259;28;20060;-79
2023/01/30 07:27:12;;;;;;;19.77;4.23;;;;;;;5.37;100.00;101549.16;5095748;28;20509;-79
2023/01/30 07:29:38;;;;;;;17.43;3.77;;;;;;;5.43;100.00;101556.59;5095437;28;20101;-79
2023/01/30 07:32:12;;;;;;;15.33;3.90;;;;;;;5.35;100.00;101559.25;5094920;28;20963;-79
2023/01/30 07:34:38;;;;;;;15.00;4.13;;;;;;;5.44;100.00;101557.44;5096028;28;21750;-79
2023/01/30 07:37:04;;;;;;;16.80;4.13;;;;;;;5.32;100.00;101557.72;5093432;28;20512;-79
2023/01/30 07:39:29;;;;;;;15.63;3.77;;;;;;;5.34;100.00;101558.38;5095424;28;20051;-79
2023/01/30 07:41:54;;;;;;;18.20;3.80;;;;;;;5.36;100.00;101559.09;5092469;28;20042;-79
2023/01/30 07:44:20;;;;;;;16.60;4.23;;;;;;;5.29;100.00;101566.09;5093408;28;20160;-80
2023/01/30 07:46:45;;;;;;;16.07;4.00;;;;;;;5.21;100.00;101566.91;5076438;28;20514;-79
2023/01/30 07:49:11;;;;;;;19.83;4.40;;;;;;;5.21;100.00;101572.25;5101320;28;20051;-85
2023/01/30 07:51:37;;;;;;;17.37;4.53;;;;;;;5.20;100.00;101573.25;5104602;28;21754;-85
2023/01/30 07:54:03;;;;;;;18.23;4.40;;;;;;;5.17;100.00;101568.22;5102011;28;20039;-85
2023/01/30 07:56:28;;;;;;;18.73;4.70;;;;;;;5.22;100.00;101562.34;5107357;28;20039;-85
2023/01/30 07:58:55;;;;;;;20.90;4.40;;;;;;;5.16;100.00;101568.38;5096721;28;20031;-85
2023/01/30 08:01:22;;;;;;;19.07;4.17;;;;;;;5.20;100.00;101572.44;5099418;28;20114;-85
2023/01/30 08:03:48;;;;;;;20.17;4.47;;;;;;;5.22;100.00;101571.28;5110184;28;20040;-85
2023/01/30 08:06:14;;;;;;;25.20;5.37;;;;;;;5.23;100.00;101572.94;5108495;28;20372;-85
2023/01/30 08:08:40;;;;;;;20.93;4.70;;;;;;;5.24;100.00;101581.84;5104882;28;20260;-85
2023/01/30 08:11:05;;;;;;;17.20;4.33;;;;;;;5.31;100.00;101571.31;5100515;28;20115;-85
2023/01/30 08:13:31;;;;;;;19.93;4.40;;;;;;;5.37;100.00;101573.34;5109914;28;20035;-84
2023/01/30 08:16:00;;;;;;;23.63;4.90;;;;;;;5.47;100.00;101579.47;5071779;28;20027;-85
2023/01/30 08:18:28;;;;;;;22.67;5.13;;;;;;;5.49;100.00;101584.69;5101942;28;20032;-85
2023/01/30 08:20:57;;;;;;;20.83;4.47;;;;;;;5.63;100.00;101591.28;5108004;28;20034;-85
2023/01/30 08:23:22;;;;;;;22.73;4.50;;;;;;;5.71;100.00;101602.94;5105355;28;20058;-85
2023/01/30 08:25:54;;;;;;;18.50;4.17;;;;;;;5.80;100.00;101606.50;5109308;28;20036;-86
2023/01/30 08:28:19;;;;;;;19.10;4.43;;;;;;;5.83;100.00;101608.03;5081497;28;20051;-85
2023/01/30 08:30:45;;;;;;;19.43;4.57;;;;;;;5.92;100.00;101605.19;5105543;28;20056;-85
2023/01/30 08:33:10;;;;;;;20.33;4.53;;;;;;;6.01;100.00;101608.81;5103354;28;20042;-85
2023/01/30 08:35:35;;;;;;;21.57;4.80;;;;;;;6.12;99.42;101609.50;5103675;28;20106;-86
2023/01/30 08:38:02;;;;;;;23.87;4.93;;;;;;;6.14;98.02;101615.56;5106699;28;20032;-85
2023/01/30 08:40:27;;;;;;;18.80;4.43;;;;;;;6.20;97.87;101613.06;5083299;28;20476;-85
2023/01/30 08:42:53;;;;;;;20.73;4.07;;;;;;;6.28;96.25;101619.47;5104478;28;20114;-85
2023/01/30 08:45:18;;;;;;;20.40;4.17;;;;;;;6.35;95.52;101615.97;5110384;28;20032;-85
2023/01/30 08:47:43;;;;;;;17.93;4.50;;;;;;;6.43;95.23;101628.56;5103504;28;20066;-80
2023/01/30 08:50:09;;;;;;;20.37;4.43;;;;;;;6.46;93.93;101619.34;5098272;28;20506;-80
2023/01/30 08:52:34;;;;;;;19.87;4.50;;;;;;;6.50;92.98;101610.78;5098522;28;20471;-80
2023/01/30 08:55:00;;;;;;;20.43;4.43;;;;;;;6.68;91.54;101609.78;5096602;28;20490;-84
2023/01/30 08:57:26;;;;;;;20.07;4.77;;;;;;;6.69;91.78;101611.44;5107826;28;20035;-85
2023/01/30 08:59:51;;;;;;;22.80;4.40;;;;;;;6.73;91.72;101623.56;5109887;28;20032;-85
2023/01/30 09:02:16;;;;;;;20.67;4.80;;;;;;;6.84;91.19;101634.03;5111076;28;20394;-85
2023/01/30 09:04:42;;;;;;;18.07;4.10;;;;;;;6.95;89.73;101640.09;5111333;28;20122;-84
2023/01/30 09:07:08;;;;;;;19.77;4.13;;;;;;;7.03;89.45;101632.00;5082571;28;20027;-80
2023/01/30 09:09:33;;;;;;;21.70;4.63;;;;;;;7.03;89.71;101635.56;5080186;28;20032;-80
2023/01/30 09:11:58;;;;;;;17.43;3.90;;;;;;;7.12;89.99;101644.47;5098952;28;20035;-80
2023/01/30 09:14:24;;;;;;;19.23;4.43;;;;;;;7.26;88.34;101643.78;5098721;28;20035;-80
2023/01/30 09:16:54;;;;;;;19.50;4.70;;;;;;;7.35;89.85;101657.25;5098681;28;20588;-80
2023/01/30 09:19:24;;;;;;;19.00;4.27;;;;;;;7.39;88.54;101655.91;5095996;28;20039;-80
2023/01/30 09:21:54;;;;;;;19.97;4.27;;;;;;;7.48;89.30;101645.94;5096541;28;20032;-80
2023/01/30 09:24:25;;;;;;;19.33;4.50;;;;;;;7.51;88.07;101654.53;5098184;28;20141;-80
2023/01/30 09:26:50;;;;;;;13.90;3.40;;;;;;;7.68;86.13;101654.47;5098472;27;20251;-80
2023/01/30 09:29:16;;;;;;;20.00;4.33;;;;;;;7.79;87.25;101659.50;5096927;28;20117;-80
2023/01/30 09:31:41;;;;;;;16.63;4.47;;;;;;;7.93;86.26;101671.44;5097216;28;20135;-80
2023/01/30 09:34:06;;;;;;;19.30;4.57;;;;;;;8.00;84.42;101671.59;5102417;28;20030;-84
2023/01/30 09:36:32;;;;;;;18.77;3.90;;;;;;;7.86;84.94;101671.31;5105801;28;20063;-86
2023/01/30 09:38:58;;;;;;;19.23;3.77;;;;;;;7.94;83.53;101679.38;5107952;28;20499;-86
2023/01/30 09:41:40;;;;;;;17.07;4.20;;;;;;;8.15;84.36;101679.81;5107409;28;20084;-80
2023/01/30 09:44:06;;;;;;;17.60;3.80;;;;;;;8.02;83.43;101669.56;5090617;28;20031;-80
2023/01/30 09:46:58;;;;;;;18.00;4.07;;;;;;;8.14;83.98;101667.31;5096485;28;20035;-80
2023/01/30 09:50:09;;;;;;;17.53;3.87;;;;;;;7.76;84.95;101670.66;5106939;28;20020;-85
2023/01/30 09:53:00;;;;;;;19.60;4.10;;;;;;;7.59;85.26;101680.66;5069445;28;20043;-85
2023/01/30 09:55:28;;;;;;;20.00;4.40;;;;;;;7.40;85.26;101676.47;5108874;28;20035;-85
2023/01/30 09:57:57;;;;;;;18.20;3.80;;;;;;;7.28;85.36;101686.75;5109663;28;21809;-85
2023/01/30 10:00:34;;;;;;;18.30;3.93;;;;;;;7.26;86.47;101686.91;5106307;28;20058;-89
2023/01/30 10:03:16;;;;;;;20.50;4.37;;;;;;;7.16;87.72;101688.94;5096118;28;20111;-85
2023/01/30 10:06:14;;;;;;;18.73;4.20;;;;;;;7.16;87.95;101658.44;5097702;28;20525;-86
2023/01/30 10:08:58;;;;;;;18.33;4.10;;;;;;;6.96;88.41;101691.09;5060820;28;20558;-80
2023/01/30 10:11:26;;;;;;;17.48;3.97;;;;;;;6.92;87.81;101695.13;5091736;28;20038;-81
2023/01/30 10:13:52;;;;;;;17.93;4.57;;;;;;;6.82;88.83;101702.56;5092336;28;20024;-80
2023/01/30 10:16:27;;;;;;;18.50;3.73;;;;;;;6.82;88.06;101706.06;5089113;28;20039;-80
2023/01/30 10:18:58;;;;;;;;;;;;;;;6.98;87.93;101707.97;5094516;27;20598;-80
2023/01/30 10:21:46;;;;;;;16.73;3.80;;;;;;;6.90;88.07;101697.19;5111941;27;21749;-80
2023/01/30 10:24:25;;;;;;;15.23;4.17;;;;;;;6.77;88.21;101703.03;5091482;28;21345;-81
2023/01/30 10:26:52;;;;;;;17.17;3.60;;;;;;;6.76;85.49;101721.06;5092024;28;20032;-80
2023/01/30 10:29:30;;;;;;;16.57;3.70;;;;;;;6.76;86.22;101714.84;5088783;28;20027;-80
2023/01/30 10:32:02;;;;;;;18.63;4.03;;;;;;;6.76;88.12;101722.91;5090070;28;20482;-80
2023/01/30 10:34:33;;;;;;;19.13;3.77;;;;;;;6.76;86.71;101709.44;5090147;28;20216;-80
2023/01/30 10:37:12;;;;;;;16.73;3.70;;;;;;;6.77;87.01;101719.19;5091081;28;20067;-80
2023/01/30 10:39:40;;;;;;;19.33;4.40;;;;;;;6.71;87.26;101722.56;5088595;27;20070;-80
2023/01/30 10:42:13;;;;;;;13.90;3.20;;;;;;;6.75;86.41;101721.22;5093943;27;20035;-81
2023/01/30 10:44:41;;;;;;;17.03;3.50;;;;;;;6.69;88.12;101727.25;5111384;27;20020;-81
2023/01/30 10:47:48;;;;;;;15.73;3.87;;;;;;;6.80;88.16;101735.03;5094720;28;20924;-86
2023/01/30 10:50:16;;;;;;;15.33;3.63;;;;;;;6.72;86.78;101727.78;5039532;28;20029;-85
2023/01/30 10:52:53;;;;;;;19.10;4.07;;;;;;;6.74;87.21;101722.22;5038261;28;20024;-86
2023/01/30 10:55:37;;;;;;;13.67;3.23;;;;;;;6.72;86.25;101718.88;5063459;28;20032;-86
2023/01/30 10:58:10;;;;;;;18.42;3.83;;;;;;;6.78;86.66;101726.28;5108582;27;20067;-86
2023/01/30 11:00:45;;;;;;;16.83;4.10;;;;;;;6.75;88.38;101740.06;5093308;28;20028;-85
2023/01/30 11:03:30;;;;;;;16.33;3.77;;;;;;;6.78;86.59;101734.34;5095350;28;20445;-87
2023/01/30 11:06:04;;;;;;;16.70;3.93;;;;;;;6.78;86.63;101744.31;5094706;28;21610;-86
2023/01/30 11:08:34;;;;;;;19.75;4.30;;;;;;;6.80;85.59;101737.75;5105310;27;20028;-85
2023/01/30 11:11:00;;;;;;;16.67;4.43;;;;;;;6.80;86.88;101724.28;5096204;28;20051;-85
2023/01/30 11:13:31;;;;;;;18.93;4.20;;;;;;;6.83;86.42;101729.31;5097445;28;20027;-86
2023/01/30 11:16:05;;;;;;;16.47;3.40;;;;;;;6.82;86.49;101730.31;5089290;28;20038;-81
2023/01/30 11:18:32;;;;;;;19.58;4.22;;;;;;;6.73;86.85;101721.41;5088971;28;20028;-81
2023/01/30 11:21:00;;;;;;;19.37;4.37;;;;;;;7.05;86.95;101725.13;5089485;28;20414;-81
2023/01/30 11:23:33;;;;;;;19.60;4.47;;;;;;;7.09;86.77;101723.78;5088210;28;20027;-81
2023/01/30 11:26:00;;;;;;;20.50;4.73;;;;;;;7.17;85.71;101730.22;5088519;28;20042;-81
2023/01/30 11:28:26;;;;;;;17.07;4.10;;;;;;;7.18;83.97;101735.44;5090250;28;20134;-80
2023/01/30 11:30:54;;;;;;;22.30;4.63;;;;;;;7.09;85.15;101729.19;5072237;28;20066;-81
2023/01/30 11:33:21;;;;;;;17.63;4.07;;;;;;;7.20;86.14;101735.25;5085799;28;20509;-81